Salt Lake City, Utah
Traffic Map
Current Weather Conditions
Salt Lake City, Utah
Clear
Clear
77°
Feels Like: 77°
Wind Chill: 77° Ceiling: Unl
Heat Index: 77° Visibility: 10mi
Dew Point: 26° Wind: 12mph
Humidity: 15% Direction: 350° (N)
Pressure: 30.2in Gusts: 0mph
Raw Report DataKSLC 282353Z 35010KT 10SM CLR 25/M03 A3020 RMK AO2 SLP186 T02501033 10250 20211 56013
Traffic Incident Summary
Active as of:
Severity:
Category:
InformationThere was an issue retrieving the traffic information for this location. Please try a different location or try again shortly.
Advertisements
Track Severe Weather on mobile